FAI orgVALCOMINO CUP 2019AeC Lega Piloti ASDASD ClubPR

Val Comino CUP 2019 - Campionato italiano

2019-08-25 to 2019-08-31, FAI Category 2 event

26/08/2019 - Task 2 – Open

2019-08-26 26/08/2019 - Task 2  - Stopped at 16:12  (scored back by 5 min.)

Race to Goal 70.6 km

Provisional

No Leg Dist. Id Radius Open Close Coordinates Altitude
1 0.0 km D015 400 m 12:30 14:30 Lat: 41.67772 Lon: 13.87242 1265 m
2 SS 0.6 km D015 1000 m 13:45 19:00 Lat: 41.67772 Lon: 13.87242 1265 m
3 7.2 km D002 3000 m 13:45 19:00 Lat: 41.73346 Lon: 13.77159 1360 m
4 25.5 km B109 1000 m 13:45 19:00 Lat: 41.5475 Lon: 13.86163 120 m
5 39.5 km B102 1000 m 13:45 19:00 Lat: 41.54748 Lon: 13.673 440 m
6 51.1 km B106 1000 m 13:45 19:00 Lat: 41.49126 Lon: 13.81443 510 m
7 ES 68.8 km A015 2000 m 13:45 19:00 Lat: 41.67469 Lon: 13.84139 680 m
8 70.6 km A015 200 m 13:45 19:00 Lat: 41.67469 Lon: 13.84139 680 m
StartGate(s): 13:45

# Id Name Nat Glider Sponsor SS ES Time km/h Distance Altitude Adj.
Distance
Dist.
Points
Lead.
Points
Time
Points
Total
1 113 Marco BUSETTA M ITA Ozone Enzo 3 Bullet Speedbar - Ilpistacchio.It 13:45:00 15:37:18 01:52:18 36.4 70.55 0 70.55 398.8 146.6 191.2 737
2 105 Loris BERTA M ITA Ozone Enzo 3 Compass 13:45:00 15:37:25 01:52:25 36.4 70.55 0 70.55 398.8 143.7 189.3 732
3 175 Fulvio POLCINI M ITA Ozone Enzo 3 13:45:00 15:37:22 01:52:22 36.4 70.55 0 70.55 398.8 142.0 190.0 731
3 138 Eugenio GAMBARI M ITA Flow Spectra 13:45:00 15:37:25 01:52:25 36.4 70.55 0 70.55 398.8 142.9 189.3 731
5 161 Maurizio MAINA M ITA Ozone Enzo 3 Floricoltura Pecettese 13:45:00 15:37:47 01:52:47 36.3 70.55 0 70.55 398.8 144.6 185.0 728
6 183 Marek ROBEL M POL UP Guru Diagmatic 13:45:00 15:37:31 01:52:31 36.3 70.55 0 70.55 398.8 139.4 188.0 726
7 198 Biagio Alberto VITALE M ITA Ozone Enzo 3 Aire Corbelli Dmd Casarini Tana Del Riccio Infopro 13:45:00 15:38:03 01:53:03 36.2 70.55 0 70.55 398.8 142.0 182.3 723
7 129 Paolo FACCHINI M ITA GIN Boomerang 11 / 13:45:00 15:37:48 01:52:48 36.3 70.55 0 70.55 398.8 139.0 184.8 723
9 197 Paolo VERATTI M ITA Ozone Zeno 13:45:00 15:38:32 01:53:32 36.0 70.55 0 70.55 398.8 144.6 177.7 721
10 195 Marco VALENTINI M ITA Ozone Zeno Malloy 13:45:00 15:37:43 01:52:43 36.3 70.55 0 70.55 398.8 135.2 185.7 720
10 184 Elio ROSSI M ITA Ozone Enzo 3 Didiemme 13:45:00 15:37:32 01:52:32 36.3 70.55 0 70.55 398.8 133.2 187.8 720
10 114 Silvia BUZZI FERRARIS F ITA Ozone Enzo 3 Pandolf-Fly 13:45:00 15:37:39 01:52:39 36.3 70.55 0 70.55 398.8 134.8 186.4 720
13 110 Michele BOSCHI M ITA UP Guru Up Paragliders - Sport Professional - Paradelta - Digifly - Aeci - Corsair - Air 13:45:00 15:39:11 01:54:11 35.8 70.55 0 70.55 398.8 148.6 172.0 719
14 188 Walter SCHERLIN M ITA Ozone Enzo 3 13:45:00 15:38:11 01:53:11 36.1 70.55 0 70.55 398.8 135.7 180.9 715
15 190 Evangelos STAMELLOS M GRE GIN Leopard Www.O2Paragliding.Gr 13:45:00 15:38:53 01:53:53 35.9 70.55 0 70.55 398.8 136.7 174.6 710
16 111 Federico BROWN MANZONE M ITA Ozone Enzo 3 Nuddu E Nenti 13:45:00 15:37:45 01:52:45 36.3 70.55 0 70.55 398.8 124.5 185.3 709
17 150 Slawomir KACZYNSKI M POL Ozone Enzo 3 Etu 13:45:00 15:37:41 01:52:41 36.3 70.55 0 70.55 398.8 122.1 186.1 707
18 162 Andreas MALECKI M GER Ozone Enzo 3 Mwz 24 Flugschule-Chiemsee.De Ozone Dhv 13:45:00 15:38:27 01:53:27 36.0 70.55 0 70.55 398.8 127.3 178.4 705
19 127 Angelo DELL'AIRA M ITA Ozone Zeno Idrotech 13:45:00 15:37:58 01:52:58 36.2 70.55 0 70.55 398.8 120.7 183.1 703
20 171 Luciano PAGNONI M ITA Ozone Enzo 3 Www.Lisen.It 13:45:00 15:40:50 01:55:50 35.3 70.55 0 70.55 398.8 135.0 158.7 693
21 199 Davide ZALTRON M ITA Ozone Zeno Io Lo Porto A Casa 13:45:00 15:42:02 01:57:02 34.9 70.55 0 70.55 398.8 121.4 149.8 670
22 167 Giuliano MINUTELLA M ITA Flow Spectra Eo Corp Ciro Spataro Medical Device Kortel 13:45:00 15:43:42 01:58:42 34.4 70.55 0 70.55 398.8 117.7 138.0 655
23 140 Andrea GAROLLA M ITA Ozone Enzo 3 No 13:45:00 15:44:56 01:59:56 34.1 70.55 0 70.55 398.8 125.3 129.5 654
24 181 Massimo RAPARI M ITA Ozone Zeno 13:45:00 15:45:44 02:00:44 33.9 70.55 0 70.55 398.8 126.3 124.2 649
25 200 Paolo ZAMMARCHI M ITA GIN Boomerang 11 Pel-Team Sv-Check Point Cornizzolo 13:45:00 15:46:43 02:01:43 33.6 70.55 0 70.55 398.8 128.9 117.8 646
26 196 Alessandro VALLERO M ITA Ozone Zeno Vairbration 13:45:00 15:46:44 02:01:44 33.6 70.55 0 70.55 398.8 127.8 117.7 644
26 192 Uwe TILLMANN M GER Ozone Enzo 3 13:45:00 15:45:13 02:00:13 34.0 70.55 0 70.55 398.8 117.9 127.6 644
28 137 Luciano GALLO M ITA Ozone Enzo 3 13:45:00 15:45:35 02:00:35 33.9 70.55 0 70.55 398.8 118.1 125.2 642
29 118 Alberto CASTAGNA M ITA Ozone Zeno Www.Ti-Srl.Ti 13:45:00 15:46:46 02:01:46 33.6 70.55 0 70.55 398.8 122.5 117.4 639
29 143 Antonio GOLFARI M ITA Ozone Zeno 13:45:00 15:46:28 02:01:28 33.7 70.55 0 70.55 398.8 121.0 119.4 639
31 103 Fabio BALZARANI M ITA Ozone Enzo 3 Me 13:45:00 15:45:50 02:00:50 33.8 70.55 0 70.55 398.8 109.7 123.5 632
32 155 Cyril LAMBERT M FRA UP Guru Up 13:45:00 15:48:38 02:03:38 33.1 70.55 0 70.55 398.8 119.3 105.5 624
33 179 Stefano PUCCI M ITA Ozone Zeno My Wife 13:45:00 15:49:06 02:04:06 32.9 70.55 0 70.55 398.8 117.0 102.6 618
34 124 Gabriele D'ARRIGO M ITA Ozone Enzo 3 Brasulrecca - Ai Pini 13:45:00 15:49:53 02:04:53 32.7 70.55 0 70.55 398.8 120.9 97.7 617
35 123 Giorgio DARRA M ITA Niviuk Icepeak Evox Pel 13:45:00 15:47:24 02:02:24 33.4 70.55 0 70.55 398.8 103.3 113.4 616
36 178 Gianbasilio PROFITI M ITA GIN Boomerang 11 Auri 13:45:00 15:51:27 02:06:27 32.3 70.55 0 70.55 398.8 127.1 88.1 614
37 166 Mike MILLER M GBR UP Meru Up Paragliders Uk 13:45:00 15:50:47 02:05:47 32.5 70.55 0 70.55 398.8 118.8 92.2 610
37 185 Antonio RUTA M ITA Ozone Enzo 3 Ass Altivoli 13:45:00 15:50:19 02:05:19 32.6 70.55 0 70.55 398.8 116.4 95.0 610
39 117 Mirco CASARINI M ITA Ozone Zeno No 13:45:00 15:49:55 02:04:55 32.7 70.55 0 70.55 398.8 108.8 97.5 605
40 193 Moreno TONIN M ITA Ozone Zeno 13:45:00 15:49:31 02:04:31 32.8 70.55 0 70.55 398.8 100.2 100.0 599
41 194 Tiziano TRAMBAIOLI M ITA Flow Spectra Flow Paragliders 13:45:00 15:52:39 02:07:39 32.0 70.55 0 70.55 398.8 118.4 80.9 598
41 163 Luca MAMMUCARI M ITA Flow Spectra 13:45:00 15:53:01 02:08:01 31.9 70.55 0 70.55 398.8 120.7 78.7 598
43 148 Bence HALASZ M HUN Ozone Zeno 13:45:00 15:51:10 02:06:10 32.4 70.55 0 70.55 398.8 106.9 89.8 596
43 149 Cristian INVERARDI M ITA Niviuk Icepeak Evox Nbb Infinity 13:45:00 15:51:00 02:06:00 32.5 70.55 0 70.55 398.8 106.5 90.8 596
45 121 Roberto COSTANTINO M ITA Ozone Enzo 3 13:45:00 15:53:14 02:08:14 31.9 70.55 0 70.55 398.8 116.9 77.4 593
46 174 Piergiorgio PINTOSSI M ITA Ozone Zeno Pel 13:45:00 15:52:19 02:07:19 32.1 70.55 0 70.55 398.8 109.7 82.9 591
47 101 Marco ALESSANDRINI M ITA Ozone Zeno Www.Concadoro.Com 13:45:00 15:55:17 02:10:17 31.4 70.55 0 70.55 398.8 120.3 65.3 584
48 126 Tudor DOROBANTU M ROU UP Meru Slavia Pharm , Tellur , Masina Engineering 13:45:00 15:54:00 02:09:00 31.7 70.55 0 70.55 398.8 106.8 72.8 578
49 172 Luca PAOLETTI M ITA Ozone Zeno 13:45:00 15:56:14 02:11:14 31.2 70.55 0 70.55 398.8 117.3 59.8 576
50 119 Ivan CENTA M ITA Ozone Mantra M7 Superfly 360 Team Alpenplus 13:45:00 15:56:44 02:11:44 31.0 70.55 0 70.55 398.8 114.6 56.9 570
51 168 Federico NEVASTRO M ITA Swing Agera RS Omnia Costruzioni 13:45:00 15:57:00 02:12:00 31.0 70.55 0 70.55 398.8 114.3 55.4 569
51 102 Matteo BACCHIOCCHI M ITA UP Meru Omfcrushingplants 13:45:00 15:56:09 02:11:09 31.2 70.55 0 70.55 398.8 109.9 60.3 569
53 152 Jacek KRZYZANOWSKI M POL Advance Sigma 10 Www.Poppyfarm.Pl 13:45:00 15:56:24 02:11:24 31.1 70.55 0 70.55 398.8 109.4 58.8 567
54 133 Alessandro FUZZI M ITA Ozone Zeno 13:45:00 15:56:14 02:11:14 31.2 70.55 0 70.55 398.8 106.7 59.8 565
55 135 Michele GAIBA M ITA Ozone Zeno My Iban Spa 13:45:00 15:57:07 02:12:07 31.0 70.55 0 70.55 398.8 101.1 54.7 555
56 132 Roberto FORTI M ITA Ozone Zeno 13:45:00 16:00:46 02:15:46 30.1 70.55 0 70.55 398.8 114.2 34.1 547
57 156 Marco LITTAMÈ M ITA Flow Spectra Luca-Lisa 13:45:00 67.01 0 67.01 378.8 155.2 534
58 134 Richárd GABRIELI M HUN Niviuk Peak 4 Flyaway 13:45:00 16:00:53 02:15:53 30.1 70.55 0 70.55 398.8 74.2 33.4 506
59 180 Alfio RAGAGLIA M ITA Ozone Enzo 3 13:45:00 67.45 -100 67.45 381.3 114.1 495
60 186 Andrea SAIONI M ITA Ozone Mantra M7 Para Delta Club Feltre 13:45:00 67.74 +135 68.28 386.0 83.8 470
61 122 Gianfranco CRESTANI M ITA Flow XC RACER Fado’ Pub Compass 13:45:00 64.62 +198 65.12 368.1 90.0 458
62 144 Rasa GRIGORAITIENE F LTU Ozone Zeno Abipa 13:45:00 64.21 +178 64.92 367.0 85.1 452
62 131 Giovanni FONTANESI M ITA UP Meru Magari 13:45:00 57.53 +977 61.42 347.2 104.3 452
64 170 Paul Daniel PADURARU M ITA Ozone Alpina 3 Pro Blade Service. Orbital Italia. Slashto. I Falchi Di Federico 13:45:00 67.30 +168 67.97 384.2 66.8 451
65 108 Gabriele BONAFINI M ITA Advance Sigma 10 13:45:00 63.85 +216 64.56 364.9 78.3 443
66 109 Giampietro BONARDI M ITA Flow Xc Racer Www.Svpievanisnc.It Team Sv 13:45:00 64.38 +214 65.24 368.8 69.8 439
67 125 Didier DE SAINT ETIENNE M FRA Ozone Zeno No 13:45:00 64.26 +236 65.20 368.6 69.3 438
68 104 Hannes BAUER M ITA Flow Xc Racer 13:45:00 63.43 +379 64.37 363.9 72.7 437
68 145 Federico GUATTERI M ITA Ozone Zeno Elettromeccanica Medici 13:45:00 66.59 +165 67.25 380.1 57.0 437
70 112 Bruno BRUGNOLO M ITA GIN Boomerang 11 Compass - Next Generation Fight Instruments 13:45:00 64.40 +297 65.22 368.6 57.3 426
71 158 Carel LUEBBIG M SUI Flow Spectra Flyproducts.Ch 13:45:00 59.53 +647 62.12 351.1 68.1 419
72 120 Rodrigue CHER M FRA Ozone Zeno 13:45:00 58.91 +189 59.67 337.3 68.9 406
73 191 Martin STECHER M ITA UP Trango X-Race *** Speck && Kaas *** 13:45:00 57.18 +342 58.54 330.9 73.7 405
74 116 Tommaso CARLINI M ITA Ozone Delta 3 13:45:00 57.41 +803 60.62 342.6 53.0 396
75 159 Jan LUEBBIG M SUI Flow Spectra Flyproducts.Ch 13:45:00 59.14 +506 61.17 345.7 46.0 392
76 177 Martin PRINOTH M ITA Niviuk Artik P 4 Sangemini 13:45:00 58.32 +313 59.57 336.7 43.6 380
76 136 Bartek GALANTY M POL Triple Seven Queen 2 13:45:00 58.83 +276 59.93 338.8 41.3 380
78 142 Matteo GIULIANI M ITA Niviuk Artik 4 13:45:00 57.00 +484 58.93 333.1 44.6 378
78 146 Remo GUCCIARDI M ITA Ozone Zeno Io 13:45:00 58.20 +399 59.79 338.0 40.1 378
80 164 Michele MIEGGE M ITA Ozone Alpina Io 13:45:00 58.19 +419 59.86 338.4 37.5 376
80 107 Oliver BLONSKE M GER Flow XC Racer Mwz 24 13:45:00 57.06 0 57.06 322.5 53.3 376
82 203 Matteo SIRAGNA M ITA Ozone Mantra 7 Bar Gallo Case Rosse Selvarek 13:45:00 53.06 0 53.06 299.9 73.7 374
83 153 Jakub KWIATKOWSKI M POL UP Trango X-Race Gcg 13:45:00 52.83 0 52.83 298.6 72.1 371
84 187 Roberto SALSI M ITA Ozone Mantra M7 Zenit Formazione 13:45:00 57.21 -428 57.21 323.4 44.4 368
84 189 Heinz SENONER M ITA GIN Explorer 13:45:00 57.00 +323 58.29 329.5 38.0 368
86 182 Luca RIZZO M ITA Ozone Zeno 13:45:00 51.55 +546 53.73 303.7 56.8 361
87 165 Yevgen MIKHALCHUK M UKR Skywalk Poison X-alps 13:45:00 56.01 +299 57.20 323.3 34.5 358
88 204 Sergio DI FAZIO M ITA Niviuk IcePeak 7 pro AeroClub della Ciociaria 13:45:00 51.50 +646 54.09 305.7 46.8 353
89 201 Lorenzo ZAMPROGNO M ITA Ozone Mantra M7 Io 13:45:00 50.58 +139 51.13 289.0 47.5 337
90 176 Alessandro POMPEI M ITA Ozone Delta 3 13:45:00 50.56 +343 51.93 293.6 21.3 315
91 173 Flavio PERONA M ITA Advance Omega XAlp 2 Vairbration 13:45:00 50.52 +60 50.73 286.8 25.1 312
92 151 Ioannis KARASIMOS M GRE GIN Boomerang Oxygenparagliding.Gr 13:45:00 42.45 0 42.45 240.0 62.7 303
93 130 Marco FLANDINA M ITA Ozone Rush 5 13:45:00 43.48 0 43.48 245.8 15.0 261
94 202 Agata KOWALSKA F POL 777 Queen 2 13:45:00 41.43 +669 44.11 249.3 249
95 139 Gabriele GARDINI M ITA Flow Spectra Fluo Flights 13:45:00 32.85 +995 36.59 206.8 41.2 248
96 141 Marco GENTILINI M ITA Flow XC Racer 13:45:00 31.47 +478 33.24 187.9 26.8 215
97 160 Alessandro MADALUNI M ITA Ozone Rush 5 My Wife. 13:45:00 31.37 +546 33.24 187.9 0.3 188
98 106 Daniele BEVILACQUA M ITA Flow Xc Racer 13:45:00 25.61 0 25.61 144.8 10.4 155
99 169 Angela OLVBACK F ITA Skywalk Chili 4 Giuliano Minutella 13:45:00 21.39 0 21.39 120.9 121
100 154 Sandy LAMBERT F FRA Ozone Mantra M7 13:45:00 19.22 0 19.22 108.7 109

Pilots absent from task (ABS)

Id Name
115 Vadym BYELKIN
128 Normann D'ORLANDO
147 Alessio GUIDI
157 Walter LO GIUDICE

Pilots not yet processed (NYP)

Id Name

Task statistics

param value
ss_distance 68.151
task_distance 70.552
launch_to_ess_distance 68.752
no_of_pilots_present 100
no_of_pilots_flying 100
no_of_pilots_lo 43
no_of_pilots_reaching_nom_dist 91
no_of_pilots_reaching_es 57
no_of_pilots_reaching_goal 57
sum_flown_distance 6324.13399999999
best_dist 70.552
best_time 1.87166666666667
worst_time 2.26472222222222
no_of_pilots_in_competition 104
no_of_pilots_landed_before_stop 66
sum_dist_over_min 5872.33899999999
sum_real_dist_over_min 5824.13399999999
sum_flown_distances 6324.13399999999
best_real_dist 70.552
last_start_time 2019-08-26T13:45:00+02:00
first_start_time 2019-08-26T13:45:00+02:00
first_finish_time 2019-08-26T15:37:18+02:00
max_time_to_get_time_points 3.23975535774874
no_of_pilots_with_time_points 57
goalratio 0.57
arrival_weight 0
departure_weight 0
leading_weight 0.105210803425
time_weight 0.495993787575
distance_weight 0.398795409
smallest_leading_coefficient 1.26023825816322
available_points_distance 398.795409
available_points_time 445.993787575
available_points_departure 0
available_points_leading 155.210803425
available_points_arrival 0
time_validity 1
launch_validity 1
distance_validity 1
stop_validity 1
day_quality 1
ftv_day_validity 0.745169547023043
time_points_stop_correction 254.830452976957

Scoring formula settings

param value
id PWC2017
min_dist 5
nom_dist 45
nom_time 1.5
nom_launch 0.96
nom_goal 0.3
day_quality_override 0
bonus_gr 4
jump_the_gun_factor 0
jump_the_gun_max 0
normalize_1000_before_day_quality 0
time_points_if_not_in_goal 0
use_1000_points_for_max_day_quality 0
use_arrival_position_points 0
use_arrival_time_points 0
use_departure_points 0
use_difficulty_for_distance_points 0
use_distance_points 1
use_distance_squared_for_LC 1
use_leading_points 1
use_semi_circle_control_zone_for_goal_line 1
use_time_points 1
scoring_altitude GPS
final_glide_decelerator none
no_final_glide_decelerator_reason
min_time_span_for_valid_task 60
score_back_time 5
use_proportional_leading_weight_if_nobody_in_goal 0
leading_weight_factor 1
turnpoint_radius_tolerance 0.001
Report created: 2019-08-26T16:52:53+02:00

FS development, maintenance and support by